Foxridge, Maryland
Current Conditions -  °F | °C
As of 10:36 PM on Sunday 23 Nov 2014 (Local Time) from KBWI Reporting Station
Overcast Overcast  
Wind Chill:   Ceiling: 4100
Heat Index:   Visibility: 7mi
Dew Point:   Wind: 5mph
Humidity: 87%   Direction: 50°NE
Pressure: 29.91"   Gusts: NA
Location:  39.3744°N, 76.8156°W
Report Text: KBWI 240336Z 05004KT 7SM FEW019 OVC041 09/07 A2991 RMK AO2 RAE0256 P0000
Loading
Personal Weather Stations






























Interactive Weather Map New forecast layout! Learn more

10-Day Weather Forecast

Advertisements
Track Severe Weather on mobile